sensor_id;sensor_type;location;lat;lon;timestamp;P1;durP1;ratioP1;P2;durP2;ratioP2
30020;SDS011;16861;52.294;7.760;2022-12-11T00:00:44;84.47;;;26.13;;
30020;SDS011;16861;52.294;7.760;2022-12-11T00:03:11;88.38;;;24.98;;
30020;SDS011;16861;52.294;7.760;2022-12-11T00:05:41;90.45;;;24.58;;
30020;SDS011;16861;52.294;7.760;2022-12-11T00:08:09;80.18;;;24.77;;
30020;SDS011;16861;52.294;7.760;2022-12-11T00:10:36;70.40;;;22.90;;
30020;SDS011;16861;52.294;7.760;2022-12-11T00:13:03;58.97;;;22.17;;
30020;SDS011;16861;52.294;7.760;2022-12-11T00:15:29;72.25;;;22.95;;
30020;SDS011;16861;52.294;7.760;2022-12-11T00:17:56;60.13;;;21.88;;
30020;SDS011;16861;52.294;7.760;2022-12-11T00:20:22;76.95;;;25.30;;
30020;SDS011;16861;52.294;7.760;2022-12-11T00:22:48;60.58;;;21.17;;
30020;SDS011;16861;52.294;7.760;2022-12-11T00:25:15;62.45;;;21.13;;
30020;SDS011;16861;52.294;7.760;2022-12-11T00:27:41;60.17;;;22.35;;
30020;SDS011;16861;52.294;7.760;2022-12-11T00:30:08;53.75;;;20.95;;
30020;SDS011;16861;52.294;7.760;2022-12-11T00:32:34;59.92;;;21.35;;
30020;SDS011;16861;52.294;7.760;2022-12-11T00:35:03;58.70;;;20.75;;
30020;SDS011;16861;52.294;7.760;2022-12-11T00:37:29;58.35;;;21.92;;
30020;SDS011;16861;52.294;7.760;2022-12-11T00:39:56;73.22;;;22.13;;
30020;SDS011;16861;52.294;7.760;2022-12-11T00:42:22;87.57;;;20.48;;
30020;SDS011;16861;52.294;7.760;2022-12-11T00:44:48;59.22;;;21.67;;
30020;SDS011;16861;52.294;7.760;2022-12-11T00:47:15;53.67;;;19.75;;
30020;SDS011;16861;52.294;7.760;2022-12-11T00:49:42;61.15;;;20.13;;
30020;SDS011;16861;52.294;7.760;2022-12-11T00:52:14;58.90;;;19.95;;
30020;SDS011;16861;52.294;7.760;2022-12-11T00:57:29;57.35;;;19.98;;
30020;SDS011;16861;52.294;7.760;2022-12-11T00:59:55;68.32;;;20.20;;
30020;SDS011;16861;52.294;7.760;2022-12-11T01:02:23;70.28;;;21.23;;
30020;SDS011;16861;52.294;7.760;2022-12-11T01:04:50;84.15;;;21.70;;
30020;SDS011;16861;52.294;7.760;2022-12-11T01:07:16;54.50;;;20.42;;
30020;SDS011;16861;52.294;7.760;2022-12-11T01:09:44;55.65;;;20.02;;
30020;SDS011;16861;52.294;7.760;2022-12-11T01:12:29;51.00;;;19.70;;
30020;SDS011;16861;52.294;7.760;2022-12-11T01:14:55;56.55;;;21.55;;
30020;SDS011;16861;52.294;7.760;2022-12-11T01:17:24;53.40;;;19.52;;
30020;SDS011;16861;52.294;7.760;2022-12-11T01:19:52;65.20;;;21.40;;
30020;SDS011;16861;52.294;7.760;2022-12-11T01:22:19;50.60;;;19.58;;
30020;SDS011;16861;52.294;7.760;2022-12-11T01:24:52;47.63;;;18.45;;
30020;SDS011;16861;52.294;7.760;2022-12-11T01:27:18;47.85;;;19.17;;
30020;SDS011;16861;52.294;7.760;2022-12-11T01:29:45;50.70;;;19.52;;
30020;SDS011;16861;52.294;7.760;2022-12-11T01:32:11;49.95;;;18.45;;
30020;SDS011;16861;52.294;7.760;2022-12-11T01:34:38;102.07;;;19.23;;
30020;SDS011;16861;52.294;7.760;2022-12-11T01:37:10;52.72;;;18.75;;
30020;SDS011;16861;52.294;7.760;2022-12-11T01:39:37;117.90;;;22.27;;
30020;SDS011;16861;52.294;7.760;2022-12-11T01:42:06;62.88;;;18.13;;
30020;SDS011;16861;52.294;7.760;2022-12-11T01:49:45;67.63;;;18.38;;
30020;SDS011;16861;52.294;7.760;2022-12-11T01:52:25;48.35;;;16.45;;
30020;SDS011;16861;52.294;7.760;2022-12-11T01:54:52;49.60;;;17.02;;
30020;SDS011;16861;52.294;7.760;2022-12-11T02:00:08;48.50;;;15.88;;
30020;SDS011;16861;52.294;7.760;2022-12-11T02:02:41;62.20;;;16.13;;
30020;SDS011;16861;52.294;7.760;2022-12-11T02:07:39;59.60;;;14.93;;
30020;SDS011;16861;52.294;7.760;2022-12-11T02:10:11;33.42;;;13.48;;
30020;SDS011;16861;52.294;7.760;2022-12-11T02:12:41;90.75;;;17.27;;
30020;SDS011;16861;52.294;7.760;2022-12-11T02:15:16;56.03;;;15.40;;
30020;SDS011;16861;52.294;7.760;2022-12-11T02:18:06;56.40;;;14.07;;
30020;SDS011;16861;52.294;7.760;2022-12-11T02:20:57;70.70;;;13.52;;
30020;SDS011;16861;52.294;7.760;2022-12-11T02:26:49;49.05;;;13.20;;
30020;SDS011;16861;52.294;7.760;2022-12-11T02:33:14;40.50;;;13.55;;
30020;SDS011;16861;52.294;7.760;2022-12-11T02:35:45;50.30;;;13.75;;
30020;SDS011;16861;52.294;7.760;2022-12-11T02:38:26;34.15;;;12.68;;
30020;SDS011;16861;52.294;7.760;2022-12-11T02:40:56;35.60;;;12.67;;
30020;SDS011;16861;52.294;7.760;2022-12-11T02:43:25;43.70;;;13.20;;
30020;SDS011;16861;52.294;7.760;2022-12-11T02:45:54;36.40;;;13.13;;
30020;SDS011;16861;52.294;7.760;2022-12-11T02:50:54;26.47;;;9.77;;
30020;SDS011;16861;52.294;7.760;2022-12-11T02:53:27;47.20;;;12.73;;
30020;SDS011;16861;52.294;7.760;2022-12-11T02:55:58;39.95;;;12.07;;
30020;SDS011;16861;52.294;7.760;2022-12-11T02:58:34;87.35;;;13.65;;
30020;SDS011;16861;52.294;7.760;2022-12-11T03:01:03;39.60;;;11.43;;
30020;SDS011;16861;52.294;7.760;2022-12-11T03:03:29;77.55;;;13.80;;
30020;SDS011;16861;52.294;7.760;2022-12-11T03:05:56;33.00;;;12.65;;
30020;SDS011;16861;52.294;7.760;2022-12-11T03:08:23;34.33;;;12.30;;
30020;SDS011;16861;52.294;7.760;2022-12-11T03:13:45;34.67;;;11.88;;
30020;SDS011;16861;52.294;7.760;2022-12-11T03:19:05;29.15;;;11.75;;
30020;SDS011;16861;52.294;7.760;2022-12-11T03:22:10;22.60;;;10.50;;
30020;SDS011;16861;52.294;7.760;2022-12-11T03:24:54;38.55;;;11.25;;
30020;SDS011;16861;52.294;7.760;2022-12-11T03:27:35;24.38;;;10.32;;
30020;SDS011;16861;52.294;7.760;2022-12-11T03:30:29;33.63;;;10.77;;
30020;SDS011;16861;52.294;7.760;2022-12-11T03:36:06;28.92;;;10.90;;
30020;SDS011;16861;52.294;7.760;2022-12-11T03:41:38;34.20;;;8.85;;
30020;SDS011;16861;52.294;7.760;2022-12-11T03:44:06;36.35;;;11.60;;
30020;SDS011;16861;52.294;7.760;2022-12-11T03:46:36;22.23;;;9.98;;
30020;SDS011;16861;52.294;7.760;2022-12-11T03:49:06;23.75;;;10.98;;
30020;SDS011;16861;52.294;7.760;2022-12-11T03:54:26;67.32;;;13.32;;
30020;SDS011;16861;52.294;7.760;2022-12-11T03:56:55;79.90;;;12.50;;
30020;SDS011;16861;52.294;7.760;2022-12-11T03:59:23;41.63;;;10.57;;
30020;SDS011;16861;52.294;7.760;2022-12-11T04:02:04;32.13;;;11.73;;
30020;SDS011;16861;52.294;7.760;2022-12-11T04:04:36;21.75;;;9.95;;
30020;SDS011;16861;52.294;7.760;2022-12-11T04:07:06;35.28;;;11.65;;
30020;SDS011;16861;52.294;7.760;2022-12-11T04:09:33;43.00;;;11.90;;
30020;SDS011;16861;52.294;7.760;2022-12-11T04:11:59;101.97;;;13.05;;
30020;SDS011;16861;52.294;7.760;2022-12-11T04:14:28;29.30;;;11.25;;
30020;SDS011;16861;52.294;7.760;2022-12-11T04:17:13;26.77;;;10.32;;
30020;SDS011;16861;52.294;7.760;2022-12-11T04:19:59;23.20;;;10.48;;
30020;SDS011;16861;52.294;7.760;2022-12-11T04:23:03;25.08;;;9.57;;
30020;SDS011;16861;52.294;7.760;2022-12-11T04:25:50;27.08;;;10.05;;
30020;SDS011;16861;52.294;7.760;2022-12-11T04:28:16;34.65;;;10.98;;
30020;SDS011;16861;52.294;7.760;2022-12-11T04:30:47;29.63;;;10.73;;
30020;SDS011;16861;52.294;7.760;2022-12-11T04:33:15;34.97;;;9.33;;
30020;SDS011;16861;52.294;7.760;2022-12-11T04:38:45;37.05;;;9.88;;
30020;SDS011;16861;52.294;7.760;2022-12-11T04:41:25;69.97;;;10.60;;
30020;SDS011;16861;52.294;7.760;2022-12-11T04:43:51;26.98;;;10.32;;
30020;SDS011;16861;52.294;7.760;2022-12-11T04:46:19;32.47;;;10.50;;
30020;SDS011;16861;52.294;7.760;2022-12-11T04:48:49;34.55;;;11.75;;
30020;SDS011;16861;52.294;7.760;2022-12-11T04:51:22;47.33;;;11.55;;
30020;SDS011;16861;52.294;7.760;2022-12-11T04:53:50;35.17;;;11.18;;
30020;SDS011;16861;52.294;7.760;2022-12-11T04:56:24;25.52;;;11.00;;
30020;SDS011;16861;52.294;7.760;2022-12-11T04:58:53;23.55;;;10.90;;
30020;SDS011;16861;52.294;7.760;2022-12-11T05:01:20;26.95;;;9.95;;
30020;SDS011;16861;52.294;7.760;2022-12-11T05:06:34;23.08;;;10.38;;
30020;SDS011;16861;52.294;7.760;2022-12-11T05:09:00;23.70;;;10.18;;
30020;SDS011;16861;52.294;7.760;2022-12-11T05:11:42;23.05;;;10.07;;
30020;SDS011;16861;52.294;7.760;2022-12-11T05:14:08;20.83;;;9.32;;
30020;SDS011;16861;52.294;7.760;2022-12-11T05:16:35;22.92;;;9.88;;
30020;SDS011;16861;52.294;7.760;2022-12-11T05:19:01;23.27;;;10.32;;
30020;SDS011;16861;52.294;7.760;2022-12-11T05:24:27;22.00;;;9.95;;
30020;SDS011;16861;52.294;7.760;2022-12-11T05:26:56;26.42;;;10.27;;
30020;SDS011;16861;52.294;7.760;2022-12-11T05:29:22;23.98;;;9.35;;
30020;SDS011;16861;52.294;7.760;2022-12-11T05:31:55;25.80;;;10.32;;
30020;SDS011;16861;52.294;7.760;2022-12-11T05:34:21;18.58;;;9.45;;
30020;SDS011;16861;52.294;7.760;2022-12-11T05:39:48;19.63;;;9.18;;
30020;SDS011;16861;52.294;7.760;2022-12-11T05:42:14;16.13;;;8.60;;
30020;SDS011;16861;52.294;7.760;2022-12-11T05:47:10;21.60;;;9.48;;
30020;SDS011;16861;52.294;7.760;2022-12-11T05:49:37;24.20;;;9.80;;
30020;SDS011;16861;52.294;7.760;2022-12-11T05:52:15;21.60;;;9.68;;
30020;SDS011;16861;52.294;7.760;2022-12-11T05:54:42;18.90;;;8.57;;
30020;SDS011;16861;52.294;7.760;2022-12-11T05:57:10;20.50;;;9.57;;
30020;SDS011;16861;52.294;7.760;2022-12-11T05:59:36;18.27;;;9.02;;
30020;SDS011;16861;52.294;7.760;2022-12-11T06:02:03;22.33;;;9.25;;
30020;SDS011;16861;52.294;7.760;2022-12-11T06:04:29;22.30;;;9.57;;
30020;SDS011;16861;52.294;7.760;2022-12-11T06:06:57;22.83;;;10.10;;
30020;SDS011;16861;52.294;7.760;2022-12-11T06:09:23;21.00;;;9.95;;
30020;SDS011;16861;52.294;7.760;2022-12-11T06:11:50;22.10;;;10.23;;
30020;SDS011;16861;52.294;7.760;2022-12-11T06:14:17;21.73;;;10.13;;
30020;SDS011;16861;52.294;7.760;2022-12-11T06:16:44;25.15;;;11.38;;
30020;SDS011;16861;52.294;7.760;2022-12-11T06:21:44;24.35;;;11.40;;
30020;SDS011;16861;52.294;7.760;2022-12-11T06:24:11;24.13;;;10.90;;
30020;SDS011;16861;52.294;7.760;2022-12-11T06:29:27;23.10;;;11.48;;
30020;SDS011;16861;52.294;7.760;2022-12-11T06:32:03;22.42;;;10.45;;
30020;SDS011;16861;52.294;7.760;2022-12-11T06:34:29;21.48;;;10.63;;
30020;SDS011;16861;52.294;7.760;2022-12-11T06:36:56;20.02;;;9.45;;
30020;SDS011;16861;52.294;7.760;2022-12-11T06:39:22;22.02;;;9.30;;
30020;SDS011;16861;52.294;7.760;2022-12-11T06:41:49;17.65;;;8.20;;
30020;SDS011;16861;52.294;7.760;2022-12-11T06:44:15;20.13;;;9.77;;
30020;SDS011;16861;52.294;7.760;2022-12-11T06:46:43;18.95;;;8.63;;
30020;SDS011;16861;52.294;7.760;2022-12-11T06:49:10;19.23;;;8.60;;
30020;SDS011;16861;52.294;7.760;2022-12-11T06:51:38;18.23;;;8.55;;
30020;SDS011;16861;52.294;7.760;2022-12-11T06:54:05;16.25;;;8.52;;
30020;SDS011;16861;52.294;7.760;2022-12-11T06:59:42;19.65;;;8.32;;
30020;SDS011;16861;52.294;7.760;2022-12-11T07:02:11;21.65;;;8.50;;
30020;SDS011;16861;52.294;7.760;2022-12-11T07:04:39;15.73;;;7.88;;
30020;SDS011;16861;52.294;7.760;2022-12-11T07:07:06;16.38;;;7.93;;
30020;SDS011;16861;52.294;7.760;2022-12-11T07:09:33;14.88;;;7.47;;
30020;SDS011;16861;52.294;7.760;2022-12-11T07:12:00;17.25;;;7.38;;
30020;SDS011;16861;52.294;7.760;2022-12-11T07:14:26;14.98;;;7.28;;
30020;SDS011;16861;52.294;7.760;2022-12-11T07:16:53;17.15;;;7.93;;
30020;SDS011;16861;52.294;7.760;2022-12-11T07:19:19;16.13;;;7.65;;
30020;SDS011;16861;52.294;7.760;2022-12-11T07:21:45;15.50;;;7.30;;
30020;SDS011;16861;52.294;7.760;2022-12-11T07:24:12;19.13;;;8.18;;
30020;SDS011;16861;52.294;7.760;2022-12-11T07:26:38;17.25;;;7.47;;
30020;SDS011;16861;52.294;7.760;2022-12-11T07:29:04;16.60;;;7.93;;
30020;SDS011;16861;52.294;7.760;2022-12-11T07:31:31;17.08;;;8.02;;
30020;SDS011;16861;52.294;7.760;2022-12-11T07:33:59;16.30;;;8.23;;
30020;SDS011;16861;52.294;7.760;2022-12-11T07:36:27;17.58;;;8.07;;
30020;SDS011;16861;52.294;7.760;2022-12-11T07:38:55;16.65;;;8.15;;
30020;SDS011;16861;52.294;7.760;2022-12-11T07:41:22;16.55;;;8.20;;
30020;SDS011;16861;52.294;7.760;2022-12-11T07:43:48;16.73;;;8.90;;
30020;SDS011;16861;52.294;7.760;2022-12-11T07:46:16;20.75;;;9.52;;
30020;SDS011;16861;52.294;7.760;2022-12-11T07:48:44;17.73;;;8.63;;
30020;SDS011;16861;52.294;7.760;2022-12-11T07:51:14;19.70;;;9.73;;
30020;SDS011;16861;52.294;7.760;2022-12-11T07:53:48;19.45;;;9.15;;
30020;SDS011;16861;52.294;7.760;2022-12-11T07:56:16;20.23;;;9.93;;
30020;SDS011;16861;52.294;7.760;2022-12-11T07:58:43;21.05;;;10.38;;
30020;SDS011;16861;52.294;7.760;2022-12-11T08:01:23;20.50;;;10.02;;
30020;SDS011;16861;52.294;7.760;2022-12-11T08:03:51;20.08;;;9.00;;
30020;SDS011;16861;52.294;7.760;2022-12-11T08:06:18;21.30;;;10.15;;
30020;SDS011;16861;52.294;7.760;2022-12-11T08:08:49;22.90;;;10.45;;
30020;SDS011;16861;52.294;7.760;2022-12-11T08:11:15;24.35;;;11.20;;
30020;SDS011;16861;52.294;7.760;2022-12-11T08:13:41;21.55;;;10.80;;
30020;SDS011;16861;52.294;7.760;2022-12-11T08:16:09;26.55;;;11.75;;
30020;SDS011;16861;52.294;7.760;2022-12-11T08:18:38;21.88;;;10.23;;
30020;SDS011;16861;52.294;7.760;2022-12-11T08:21:13;28.70;;;12.15;;
30020;SDS011;16861;52.294;7.760;2022-12-11T08:23:42;26.45;;;11.43;;
30020;SDS011;16861;52.294;7.760;2022-12-11T08:26:11;22.25;;;10.73;;
30020;SDS011;16861;52.294;7.760;2022-12-11T08:28:40;26.80;;;11.30;;
30020;SDS011;16861;52.294;7.760;2022-12-11T08:31:07;26.08;;;11.30;;
30020;SDS011;16861;52.294;7.760;2022-12-11T08:33:34;23.92;;;10.95;;
30020;SDS011;16861;52.294;7.760;2022-12-11T08:36:03;29.42;;;11.15;;
30020;SDS011;16861;52.294;7.760;2022-12-11T08:38:30;28.40;;;11.57;;
30020;SDS011;16861;52.294;7.760;2022-12-11T08:40:56;24.98;;;11.00;;
30020;SDS011;16861;52.294;7.760;2022-12-11T08:43:23;25.13;;;11.35;;
30020;SDS011;16861;52.294;7.760;2022-12-11T08:45:50;31.17;;;11.90;;
30020;SDS011;16861;52.294;7.760;2022-12-11T08:48:16;27.70;;;11.77;;
30020;SDS011;16861;52.294;7.760;2022-12-11T08:50:42;25.58;;;11.43;;
30020;SDS011;16861;52.294;7.760;2022-12-11T08:53:09;23.88;;;11.57;;
30020;SDS011;16861;52.294;7.760;2022-12-11T08:55:35;23.45;;;11.23;;
30020;SDS011;16861;52.294;7.760;2022-12-11T08:58:02;21.73;;;10.00;;
30020;SDS011;16861;52.294;7.760;2022-12-11T09:00:28;25.23;;;11.35;;
30020;SDS011;16861;52.294;7.760;2022-12-11T09:02:55;27.23;;;11.00;;
30020;SDS011;16861;52.294;7.760;2022-12-11T09:05:21;22.65;;;9.82;;
30020;SDS011;16861;52.294;7.760;2022-12-11T09:07:47;24.45;;;10.55;;
30020;SDS011;16861;52.294;7.760;2022-12-11T09:10:14;20.60;;;9.43;;
30020;SDS011;16861;52.294;7.760;2022-12-11T09:12:40;26.02;;;9.55;;
30020;SDS011;16861;52.294;7.760;2022-12-11T09:15:07;26.77;;;11.15;;
30020;SDS011;16861;52.294;7.760;2022-12-11T09:17:34;22.63;;;10.63;;
30020;SDS011;16861;52.294;7.760;2022-12-11T09:20:01;21.45;;;9.23;;
30020;SDS011;16861;52.294;7.760;2022-12-11T09:22:27;22.67;;;10.50;;
30020;SDS011;16861;52.294;7.760;2022-12-11T09:24:53;26.75;;;11.45;;
30020;SDS011;16861;52.294;7.760;2022-12-11T09:27:20;23.38;;;10.70;;
30020;SDS011;16861;52.294;7.760;2022-12-11T09:29:47;23.90;;;11.00;;
30020;SDS011;16861;52.294;7.760;2022-12-11T09:32:13;23.92;;;10.45;;
30020;SDS011;16861;52.294;7.760;2022-12-11T09:34:39;23.35;;;11.45;;
30020;SDS011;16861;52.294;7.760;2022-12-11T09:37:06;22.40;;;11.60;;
30020;SDS011;16861;52.294;7.760;2022-12-11T09:39:32;25.23;;;11.00;;
30020;SDS011;16861;52.294;7.760;2022-12-11T09:42:01;24.35;;;11.10;;
30020;SDS011;16861;52.294;7.760;2022-12-11T09:44:40;28.15;;;11.45;;
30020;SDS011;16861;52.294;7.760;2022-12-11T09:47:15;25.92;;;11.27;;
30020;SDS011;16861;52.294;7.760;2022-12-11T09:49:46;22.88;;;10.50;;
30020;SDS011;16861;52.294;7.760;2022-12-11T09:52:27;19.33;;;8.02;;
30020;SDS011;16861;52.294;7.760;2022-12-11T09:55:00;23.67;;;10.85;;
30020;SDS011;16861;52.294;7.760;2022-12-11T10:00:13;29.65;;;11.27;;
30020;SDS011;16861;52.294;7.760;2022-12-11T10:05:59;27.40;;;12.73;;
30020;SDS011;16861;52.294;7.760;2022-12-11T10:08:38;30.58;;;12.93;;
30020;SDS011;16861;52.294;7.760;2022-12-11T10:17:11;23.42;;;11.13;;
30020;SDS011;16861;52.294;7.760;2022-12-11T10:19:43;26.52;;;12.18;;
30020;SDS011;16861;52.294;7.760;2022-12-11T10:22:12;24.88;;;10.88;;
30020;SDS011;16861;52.294;7.760;2022-12-11T10:24:46;24.92;;;10.38;;
30020;SDS011;16861;52.294;7.760;2022-12-11T10:27:37;21.85;;;10.18;;
30020;SDS011;16861;52.294;7.760;2022-12-11T10:32:47;23.35;;;10.43;;
30020;SDS011;16861;52.294;7.760;2022-12-11T10:35:22;20.48;;;10.00;;
30020;SDS011;16861;52.294;7.760;2022-12-11T10:37:56;21.90;;;10.65;;
30020;SDS011;16861;52.294;7.760;2022-12-11T10:42:54;21.08;;;9.48;;
30020;SDS011;16861;52.294;7.760;2022-12-11T10:45:20;19.15;;;9.93;;
30020;SDS011;16861;52.294;7.760;2022-12-11T10:47:46;18.05;;;8.65;;
30020;SDS011;16861;52.294;7.760;2022-12-11T10:50:24;19.77;;;9.93;;
30020;SDS011;16861;52.294;7.760;2022-12-11T10:52:51;18.23;;;9.02;;
30020;SDS011;16861;52.294;7.760;2022-12-11T10:55:26;17.35;;;9.07;;
30020;SDS011;16861;52.294;7.760;2022-12-11T10:57:56;21.13;;;9.48;;
30020;SDS011;16861;52.294;7.760;2022-12-11T11:00:29;23.67;;;9.32;;
30020;SDS011;16861;52.294;7.760;2022-12-11T11:03:00;21.25;;;8.95;;
30020;SDS011;16861;52.294;7.760;2022-12-11T11:05:32;20.20;;;10.18;;
30020;SDS011;16861;52.294;7.760;2022-12-11T11:10:36;20.20;;;9.73;;
30020;SDS011;16861;52.294;7.760;2022-12-11T11:13:02;19.17;;;8.55;;
30020;SDS011;16861;52.294;7.760;2022-12-11T11:15:29;17.75;;;9.40;;
30020;SDS011;16861;52.294;7.760;2022-12-11T11:17:57;18.33;;;9.38;;
30020;SDS011;16861;52.294;7.760;2022-12-11T11:20:29;22.70;;;9.95;;
30020;SDS011;16861;52.294;7.760;2022-12-11T11:22:57;19.08;;;10.68;;
30020;SDS011;16861;52.294;7.760;2022-12-11T11:25:28;23.10;;;10.32;;
30020;SDS011;16861;52.294;7.760;2022-12-11T11:27:59;19.13;;;9.57;;
30020;SDS011;16861;52.294;7.760;2022-12-11T11:30:28;17.20;;;8.60;;
30020;SDS011;16861;52.294;7.760;2022-12-11T11:33:01;18.27;;;10.05;;
30020;SDS011;16861;52.294;7.760;2022-12-11T11:35:30;20.75;;;9.57;;
30020;SDS011;16861;52.294;7.760;2022-12-11T11:38:08;20.05;;;9.90;;
30020;SDS011;16861;52.294;7.760;2022-12-11T11:43:35;20.75;;;10.85;;
30020;SDS011;16861;52.294;7.760;2022-12-11T11:48:59;17.95;;;9.93;;
30020;SDS011;16861;52.294;7.760;2022-12-11T11:51:31;17.42;;;9.77;;
30020;SDS011;16861;52.294;7.760;2022-12-11T11:56:34;19.02;;;9.32;;
30020;SDS011;16861;52.294;7.760;2022-12-11T11:59:19;18.52;;;9.00;;
30020;SDS011;16861;52.294;7.760;2022-12-11T12:01:57;16.35;;;8.55;;
30020;SDS011;16861;52.294;7.760;2022-12-11T12:04:32;17.33;;;9.23;;
30020;SDS011;16861;52.294;7.760;2022-12-11T12:15:56;20.52;;;9.95;;
30020;SDS011;16861;52.294;7.760;2022-12-11T12:21:37;20.38;;;9.70;;
30020;SDS011;16861;52.294;7.760;2022-12-11T12:26:31;18.50;;;9.80;;
30020;SDS011;16861;52.294;7.760;2022-12-11T12:38:08;19.17;;;9.48;;
30020;SDS011;16861;52.294;7.760;2022-12-11T12:48:59;20.73;;;10.32;;
30020;SDS011;16861;52.294;7.760;2022-12-11T12:51:27;19.27;;;9.95;;
30020;SDS011;16861;52.294;7.760;2022-12-11T12:53:59;19.33;;;10.05;;
30020;SDS011;16861;52.294;7.760;2022-12-11T12:59:20;19.45;;;9.90;;
30020;SDS011;16861;52.294;7.760;2022-12-11T13:01:49;18.40;;;10.20;;
30020;SDS011;16861;52.294;7.760;2022-12-11T13:04:41;21.02;;;9.57;;
30020;SDS011;16861;52.294;7.760;2022-12-11T13:07:25;18.63;;;9.88;;
30020;SDS011;16861;52.294;7.760;2022-12-11T13:09:56;18.45;;;9.30;;
30020;SDS011;16861;52.294;7.760;2022-12-11T13:12:33;17.85;;;8.95;;
30020;SDS011;16861;52.294;7.760;2022-12-11T13:17:54;15.07;;;8.23;;
30020;SDS011;16861;52.294;7.760;2022-12-11T13:20:22;17.05;;;9.00;;
30020;SDS011;16861;52.294;7.760;2022-12-11T13:25:32;14.57;;;7.05;;
30020;SDS011;16861;52.294;7.760;2022-12-11T13:33:56;13.32;;;7.47;;
30020;SDS011;16861;52.294;7.760;2022-12-11T13:36:32;12.68;;;7.47;;
30020;SDS011;16861;52.294;7.760;2022-12-11T13:41:32;17.52;;;8.65;;
30020;SDS011;16861;52.294;7.760;2022-12-11T13:44:01;19.38;;;9.02;;
30020;SDS011;16861;52.294;7.760;2022-12-11T13:46:30;15.60;;;7.95;;
30020;SDS011;16861;52.294;7.760;2022-12-11T13:49:02;18.50;;;9.40;;
30020;SDS011;16861;52.294;7.760;2022-12-11T13:51:32;17.77;;;8.88;;
30020;SDS011;16861;52.294;7.760;2022-12-11T13:54:11;16.80;;;8.73;;
30020;SDS011;16861;52.294;7.760;2022-12-11T13:59:34;14.25;;;7.85;;
30020;SDS011;16861;52.294;7.760;2022-12-11T14:02:04;16.80;;;8.80;;
30020;SDS011;16861;52.294;7.760;2022-12-11T14:04:40;17.10;;;8.90;;
30020;SDS011;16861;52.294;7.760;2022-12-11T14:07:07;17.20;;;9.02;;
30020;SDS011;16861;52.294;7.760;2022-12-11T14:09:38;20.00;;;10.38;;
30020;SDS011;16861;52.294;7.760;2022-12-11T14:12:16;16.88;;;9.48;;
30020;SDS011;16861;52.294;7.760;2022-12-11T14:14:46;19.85;;;9.52;;
30020;SDS011;16861;52.294;7.760;2022-12-11T14:17:19;18.33;;;10.10;;
30020;SDS011;16861;52.294;7.760;2022-12-11T14:19:50;15.73;;;8.88;;
30020;SDS011;16861;52.294;7.760;2022-12-11T14:22:19;20.48;;;11.25;;
30020;SDS011;16861;52.294;7.760;2022-12-11T14:24:55;18.38;;;10.00;;
30020;SDS011;16861;52.294;7.760;2022-12-11T14:27:28;17.35;;;9.82;;
30020;SDS011;16861;52.294;7.760;2022-12-11T14:29:55;21.65;;;10.57;;
30020;SDS011;16861;52.294;7.760;2022-12-11T14:34:56;18.48;;;10.15;;
30020;SDS011;16861;52.294;7.760;2022-12-11T14:37:25;21.27;;;10.98;;
30020;SDS011;16861;52.294;7.760;2022-12-11T14:39:58;19.33;;;10.88;;
30020;SDS011;16861;52.294;7.760;2022-12-11T14:45:33;19.15;;;10.20;;
30020;SDS011;16861;52.294;7.760;2022-12-11T14:48:06;19.40;;;10.43;;
30020;SDS011;16861;52.294;7.760;2022-12-11T14:50:40;20.50;;;10.70;;
30020;SDS011;16861;52.294;7.760;2022-12-11T14:53:21;20.23;;;10.15;;
30020;SDS011;16861;52.294;7.760;2022-12-11T14:55:52;16.60;;;9.55;;
30020;SDS011;16861;52.294;7.760;2022-12-11T14:58:20;18.80;;;10.27;;
30020;SDS011;16861;52.294;7.760;2022-12-11T15:01:35;17.75;;;10.15;;
30020;SDS011;16861;52.294;7.760;2022-12-11T15:04:03;17.25;;;9.38;;
30020;SDS011;16861;52.294;7.760;2022-12-11T15:06:45;22.30;;;10.20;;
30020;SDS011;16861;52.294;7.760;2022-12-11T15:11:43;20.63;;;10.15;;
30020;SDS011;16861;52.294;7.760;2022-12-11T15:14:11;17.27;;;10.32;;
30020;SDS011;16861;52.294;7.760;2022-12-11T15:16:40;18.63;;;10.50;;
30020;SDS011;16861;52.294;7.760;2022-12-11T15:19:14;20.63;;;10.38;;
30020;SDS011;16861;52.294;7.760;2022-12-11T15:21:59;16.85;;;9.85;;
30020;SDS011;16861;52.294;7.760;2022-12-11T15:24:43;18.73;;;9.80;;
30020;SDS011;16861;52.294;7.760;2022-12-11T15:35:36;18.95;;;10.93;;
30020;SDS011;16861;52.294;7.760;2022-12-11T15:38:25;23.90;;;10.38;;
30020;SDS011;16861;52.294;7.760;2022-12-11T15:40:54;18.77;;;9.98;;
30020;SDS011;16861;52.294;7.760;2022-12-11T15:43:21;21.15;;;10.32;;
30020;SDS011;16861;52.294;7.760;2022-12-11T15:45:48;18.77;;;9.93;;
30020;SDS011;16861;52.294;7.760;2022-12-11T15:48:15;21.80;;;11.23;;
30020;SDS011;16861;52.294;7.760;2022-12-11T15:50:42;21.00;;;11.23;;
30020;SDS011;16861;52.294;7.760;2022-12-11T15:53:10;18.75;;;10.20;;
30020;SDS011;16861;52.294;7.760;2022-12-11T15:55:36;20.45;;;10.30;;
30020;SDS011;16861;52.294;7.760;2022-12-11T15:58:07;24.55;;;11.38;;
30020;SDS011;16861;52.294;7.760;2022-12-11T16:00:43;22.95;;;11.65;;
30020;SDS011;16861;52.294;7.760;2022-12-11T16:03:13;24.38;;;11.60;;
30020;SDS011;16861;52.294;7.760;2022-12-11T16:05:41;23.00;;;11.48;;
30020;SDS011;16861;52.294;7.760;2022-12-11T16:08:23;21.27;;;10.90;;
30020;SDS011;16861;52.294;7.760;2022-12-11T16:10:50;25.98;;;12.52;;
30020;SDS011;16861;52.294;7.760;2022-12-11T16:13:19;24.38;;;13.25;;
30020;SDS011;16861;52.294;7.760;2022-12-11T16:15:54;23.67;;;13.48;;
30020;SDS011;16861;52.294;7.760;2022-12-11T16:18:21;23.02;;;12.32;;
30020;SDS011;16861;52.294;7.760;2022-12-11T16:20:49;24.95;;;13.00;;
30020;SDS011;16861;52.294;7.760;2022-12-11T16:23:19;23.33;;;12.20;;
30020;SDS011;16861;52.294;7.760;2022-12-11T16:25:46;30.08;;;13.40;;
30020;SDS011;16861;52.294;7.760;2022-12-11T16:28:13;23.50;;;12.32;;
30020;SDS011;16861;52.294;7.760;2022-12-11T16:30:41;26.00;;;12.88;;
30020;SDS011;16861;52.294;7.760;2022-12-11T16:33:10;27.23;;;12.50;;
30020;SDS011;16861;52.294;7.760;2022-12-11T16:35:39;23.45;;;11.93;;
30020;SDS011;16861;52.294;7.760;2022-12-11T16:40:46;24.15;;;12.48;;
30020;SDS011;16861;52.294;7.760;2022-12-11T16:43:20;26.35;;;13.15;;
30020;SDS011;16861;52.294;7.760;2022-12-11T16:45:47;24.55;;;13.35;;
30020;SDS011;16861;52.294;7.760;2022-12-11T16:48:20;26.75;;;14.40;;
30020;SDS011;16861;52.294;7.760;2022-12-11T16:50:46;29.00;;;14.20;;
30020;SDS011;16861;52.294;7.760;2022-12-11T16:53:13;25.48;;;13.60;;
30020;SDS011;16861;52.294;7.760;2022-12-11T16:55:41;23.30;;;12.93;;
30020;SDS011;16861;52.294;7.760;2022-12-11T16:58:15;26.73;;;13.43;;
30020;SDS011;16861;52.294;7.760;2022-12-11T17:00:45;25.20;;;12.75;;
30020;SDS011;16861;52.294;7.760;2022-12-11T17:03:13;27.45;;;12.95;;
30020;SDS011;16861;52.294;7.760;2022-12-11T17:05:40;24.52;;;12.95;;
30020;SDS011;16861;52.294;7.760;2022-12-11T17:08:08;24.85;;;12.98;;
30020;SDS011;16861;52.294;7.760;2022-12-11T17:10:38;23.48;;;12.48;;
30020;SDS011;16861;52.294;7.760;2022-12-11T17:13:08;27.15;;;14.00;;
30020;SDS011;16861;52.294;7.760;2022-12-11T17:15:38;20.60;;;12.05;;
30020;SDS011;16861;52.294;7.760;2022-12-11T17:18:07;26.13;;;13.18;;
30020;SDS011;16861;52.294;7.760;2022-12-11T17:20:37;23.30;;;12.25;;
30020;SDS011;16861;52.294;7.760;2022-12-11T17:23:07;23.23;;;13.30;;